createdAt,value
2018-08-17T05:51:57.393Z,74.5
2018-08-17T05:52:17.562Z,74.7
2018-08-17T05:52:37.682Z,74.7
2018-08-17T05:52:57.846Z,74.7
2018-08-17T05:53:18.064Z,74.6
2018-08-17T05:53:38.180Z,74.8
2018-08-17T05:53:58.321Z,74.7
2018-08-17T05:54:18.490Z,74.7
2018-08-17T05:54:38.632Z,74.7
2018-08-17T05:54:58.802Z,74.4
2018-08-17T05:55:18.931Z,74.5
2018-08-17T05:55:39.102Z,74.7
2018-08-17T05:55:59.236Z,74.7
2018-08-17T05:56:19.423Z,74.7
2018-08-17T05:56:39.712Z,74.7
2018-08-17T05:56:59.859Z,74.6
2018-08-17T05:57:19.999Z,74
2018-08-17T05:57:40.149Z,74.8
2018-08-17T05:58:00.304Z,74.7
2018-08-17T05:58:20.425Z,74.8
2018-08-17T05:58:40.586Z,74.6
2018-08-17T05:59:01.454Z,74
2018-08-17T05:59:21.614Z,74.4
2018-08-17T05:59:41.774Z,74.1
2018-08-17T06:00:01.935Z,74.1
2018-08-17T06:00:22.078Z,74.1
2018-08-17T06:00:42.236Z,73.9
2018-08-17T06:01:02.361Z,73.8
2018-08-17T06:01:22.504Z,73.8
2018-08-17T06:01:42.663Z,73.7
2018-08-17T06:02:02.855Z,73.9
2018-08-17T06:02:23.013Z,74.2
2018-08-17T06:02:43.239Z,74
2018-08-17T06:03:03.513Z,74.2
2018-08-17T06:03:23.668Z,73.9
2018-08-17T06:03:43.867Z,74
2018-08-17T06:04:04.050Z,73.4
2018-08-17T06:04:24.238Z,74.3
2018-08-17T06:04:44.405Z,73.8
2018-08-17T06:05:04.565Z,73.8
2018-08-17T06:05:24.724Z,73.2
2018-08-17T06:05:44.909Z,73.9
2018-08-17T06:06:05.259Z,73.4
2018-08-17T06:06:25.427Z,73.5
2018-08-17T06:06:45.588Z,74
2018-08-17T06:07:05.745Z,73.5
2018-08-17T06:07:25.901Z,72.9
2018-08-17T06:07:46.091Z,72.9
2018-08-17T06:08:06.238Z,73.2
2018-08-17T06:08:26.459Z,73.1
2018-08-17T06:08:46.597Z,72.8
2018-08-17T06:09:06.723Z,72.7
2018-08-17T06:09:26.891Z,73.1
2018-08-17T06:09:47.016Z,73.1
2018-08-17T06:10:07.619Z,73.1
2018-08-17T06:10:28.629Z,72.7
2018-08-17T06:10:48.888Z,72.8
2018-08-17T06:11:09.177Z,72.6
2018-08-17T06:11:29.276Z,72.2
2018-08-17T06:11:49.559Z,72.3
2018-08-17T06:12:09.693Z,72.5
2018-08-17T06:12:29.858Z,72.2
2018-08-17T06:12:50.022Z,72
2018-08-17T06:13:10.172Z,72
2018-08-17T06:13:30.334Z,71.8
2018-08-17T06:13:50.518Z,72.1
2018-08-17T06:14:10.681Z,71.8
2018-08-17T06:14:30.923Z,72
2018-08-17T06:14:51.086Z,72.2
2018-08-17T06:15:11.248Z,71.8
2018-08-17T06:15:31.393Z,71.9
2018-08-17T06:15:51.558Z,71.6
2018-08-17T06:16:11.701Z,71.4
2018-08-17T06:16:31.831Z,71.3
2018-08-17T06:16:52.006Z,70.9
2018-08-17T06:17:12.146Z,71.3
2018-08-17T06:17:32.297Z,71.1
2018-08-17T06:17:52.442Z,70.9
2018-08-17T06:18:12.579Z,71.4
2018-08-17T06:18:32.758Z,69.8
2018-08-17T06:18:52.903Z,70.2
2018-08-17T06:19:13.119Z,69.9
2018-08-17T06:19:33.355Z,70.2
2018-08-17T06:19:53.514Z,70.1
2018-08-17T06:20:13.773Z,70.2
2018-08-17T06:20:33.983Z,70.1
2018-08-17T06:20:54.163Z,70.1
2018-08-17T06:21:14.290Z,70.3
2018-08-17T06:21:35.367Z,70.3
2018-08-17T06:21:55.533Z,70
2018-08-17T06:22:15.685Z,71.2
2018-08-17T06:22:36.356Z,70.9
2018-08-17T06:22:56.524Z,70.1
2018-08-17T06:23:16.671Z,70.3
2018-08-17T06:23:36.836Z,70.3
2018-08-17T06:23:56.996Z,70.2
2018-08-17T06:24:17.134Z,70
2018-08-17T06:24:37.274Z,69.8
2018-08-17T06:24:57.433Z,70
2018-08-17T06:25:17.566Z,70
2018-08-17T06:25:37.732Z,70.2
2018-08-17T06:25:58.897Z,69.8
2018-08-17T06:26:19.055Z,70.3
2018-08-17T06:26:39.289Z,70.3
2018-08-17T06:26:59.435Z,70.4
2018-08-17T06:27:19.595Z,69.8
2018-08-17T06:27:39.743Z,69.8
2018-08-17T06:27:59.904Z,69.9
2018-08-17T06:28:20.064Z,69.7
2018-08-17T06:28:40.208Z,69.9
2018-08-17T06:29:00.375Z,69.4
2018-08-17T06:29:20.554Z,69.2
2018-08-17T06:29:40.730Z,69.4
2018-08-17T06:30:00.893Z,69
2018-08-17T06:30:21.051Z,69.3
2018-08-17T06:30:41.204Z,69.5
2018-08-17T06:31:01.364Z,69.3
2018-08-17T06:31:21.509Z,69.6
2018-08-17T06:31:41.697Z,69.3
2018-08-17T06:32:02.405Z,69.5
2018-08-17T06:32:22.578Z,69.4
2018-08-17T06:32:42.725Z,69.4
2018-08-17T06:33:02.915Z,69.3
2018-08-17T06:33:23.069Z,69.3
2018-08-17T06:33:43.267Z,70
2018-08-17T06:34:04.249Z,69.5
2018-08-17T06:34:24.405Z,69.2
2018-08-17T06:34:44.589Z,69.3
2018-08-17T06:35:04.786Z,69.5
2018-08-17T06:35:24.944Z,69.4
2018-08-17T06:35:45.132Z,69.1
2018-08-17T06:36:05.392Z,69.3
2018-08-17T06:36:25.515Z,69.1
2018-08-17T06:36:45.709Z,68.9
2018-08-17T06:37:05.919Z,68.8
2018-08-17T06:37:26.440Z,68.7
2018-08-17T06:37:46.504Z,68.8
2018-08-17T06:38:06.684Z,68.8
2018-08-17T06:38:26.852Z,69.1
2018-08-17T06:38:47.043Z,68.6
2018-08-17T06:39:07.211Z,68.9
2018-08-17T06:39:27.397Z,68.8
2018-08-17T06:39:47.633Z,68.6
2018-08-17T06:40:07.879Z,68
2018-08-17T06:40:28.027Z,67.2
2018-08-17T06:40:48.211Z,67.3
2018-08-17T06:41:08.380Z,67.2
2018-08-17T06:41:28.535Z,67.9
2018-08-17T06:41:48.666Z,67.6
2018-08-17T06:42:08.815Z,67.4
2018-08-17T06:42:28.992Z,67.3
2018-08-17T06:42:49.127Z,67.3
2018-08-17T06:43:09.270Z,67.3
2018-08-17T06:43:29.426Z,67.2
2018-08-17T06:43:49.569Z,67.3
2018-08-17T06:44:09.704Z,67.7
2018-08-17T06:44:29.850Z,67.1
2018-08-17T06:44:50.022Z,67
2018-08-17T06:45:10.158Z,65.7
2018-08-17T06:45:30.297Z,65.8
2018-08-17T06:45:50.444Z,65.7
2018-08-17T06:46:10.613Z,66.4
2018-08-17T06:46:30.797Z,66.3
2018-08-17T06:46:50.932Z,65.8
2018-08-17T06:47:11.080Z,65.9
2018-08-17T06:47:31.243Z,66.4
2018-08-17T06:47:51.407Z,66.3
2018-08-17T06:48:11.592Z,66.6
2018-08-17T06:48:31.752Z,66.3
2018-08-17T06:48:51.938Z,66
2018-08-17T06:49:12.082Z,66.3
2018-08-17T06:49:32.225Z,66.1
2018-08-17T06:49:52.390Z,65.9
2018-08-17T06:50:12.538Z,66.2
2018-08-17T06:50:32.739Z,66.1
2018-08-17T06:50:53.048Z,66.1
2018-08-17T06:51:13.236Z,66.2
2018-08-17T06:51:33.352Z,66.2
2018-08-17T06:51:53.538Z,66.2
2018-08-17T06:52:13.682Z,66.2
2018-08-17T06:52:34.710Z,65.7
2018-08-17T06:52:54.860Z,65.8
2018-08-17T06:53:15.006Z,65.7
2018-08-17T06:53:35.147Z,65.5
2018-08-17T06:53:55.304Z,65.1
2018-08-17T06:54:15.466Z,65.2
2018-08-17T06:54:35.625Z,65.2
2018-08-17T06:54:55.805Z,65.2
2018-08-17T06:55:15.952Z,64.6
2018-08-17T06:55:36.128Z,63.3
2018-08-17T06:55:56.310Z,63.8
2018-08-17T06:56:16.458Z,64.8
2018-08-17T06:56:36.610Z,65.3
2018-08-17T06:56:56.821Z,64.6
2018-08-17T06:57:17.048Z,64.4
2018-08-17T06:57:38.130Z,64
2018-08-17T06:57:58.334Z,64
2018-08-17T06:58:18.473Z,63.6
2018-08-17T06:58:38.600Z,64.3
2018-08-17T06:58:58.732Z,64.7
2018-08-17T06:59:18.886Z,64.6
2018-08-17T06:59:39.043Z,64.7
2018-08-17T06:59:59.197Z,64.5
2018-08-17T07:00:19.355Z,64.2
2018-08-17T07:00:40.172Z,64.4
2018-08-17T07:01:00.334Z,64.1
2018-08-17T07:01:21.998Z,63.9
2018-08-17T07:01:42.160Z,63.8
2018-08-17T07:02:02.289Z,64.2
2018-08-17T07:02:22.466Z,64.1
2018-08-17T07:02:43.257Z,64.4
2018-08-17T07:03:03.367Z,64.3
2018-08-17T07:03:23.591Z,64.1
2018-08-17T07:03:43.749Z,64.2
2018-08-17T07:04:03.888Z,64.2
2018-08-17T07:04:24.089Z,63.9
2018-08-17T07:04:44.248Z,64.2
2018-08-17T07:05:05.104Z,64.2
2018-08-17T07:05:25.280Z,64
2018-08-17T07:05:45.484Z,64.4
2018-08-17T07:06:05.654Z,62.9
2018-08-17T07:06:26.596Z,62.3
2018-08-17T07:06:46.800Z,62.8
2018-08-17T07:07:06.977Z,63.1
2018-08-17T07:07:27.155Z,63.3
2018-08-17T07:07:49.168Z,63
2018-08-17T07:08:09.327Z,63.1
2018-08-17T07:08:29.565Z,63.3
2018-08-17T07:08:50.017Z,63
2018-08-17T07:09:10.172Z,62.5
2018-08-17T07:09:32.220Z,61.1
2018-08-17T07:09:52.334Z,61.9
2018-08-17T07:10:13.056Z,62.1
2018-08-17T07:10:34.435Z,61.2
2018-08-17T07:10:54.585Z,61.3
2018-08-17T07:11:14.750Z,62.4
2018-08-17T07:11:34.903Z,61
2018-08-17T07:11:55.680Z,61.2
2018-08-17T07:12:15.875Z,60.9
2018-08-17T07:12:37.348Z,61.3
2018-08-17T07:12:58.949Z,61.1
2018-08-17T07:13:19.134Z,60.1
2018-08-17T07:13:39.296Z,60.4
2018-08-17T07:13:59.466Z,61.2
2018-08-17T07:14:19.636Z,61.1
2018-08-17T07:14:39.836Z,61
2018-08-17T07:15:01.401Z,60.2
2018-08-17T07:15:22.171Z,60.5
2018-08-17T07:15:42.357Z,61
2018-08-17T07:16:03.366Z,60.7
2018-08-17T07:16:24.035Z,61.2
2018-08-17T07:16:44.909Z,60.5
2018-08-17T07:17:05.103Z,60.9
2018-08-17T07:17:25.555Z,60.2
2018-08-17T07:17:46.353Z,60.6
2018-08-17T07:18:06.683Z,60.5
2018-08-17T07:18:26.826Z,60.2
2018-08-17T07:18:46.973Z,60.5
2018-08-17T07:19:07.196Z,60.3
2018-08-17T07:19:27.376Z,60.6
2018-08-17T07:19:47.530Z,60.4
2018-08-17T07:20:07.725Z,60.7
2018-08-17T07:20:28.462Z,60.4
2018-08-17T07:20:49.889Z,60.6
2018-08-17T07:21:10.132Z,60.4
2018-08-17T07:21:30.347Z,60.4
2018-08-17T07:21:52.659Z,60.4
2018-08-17T07:22:12.807Z,60.4
2018-08-17T07:22:33.086Z,60.1
2018-08-17T07:22:53.261Z,60.6
2018-08-17T07:23:13.465Z,60.2
2018-08-17T07:23:35.119Z,60.4
2018-08-17T07:23:55.330Z,60.2
2018-08-17T07:24:15.489Z,60.3
2018-08-17T07:24:37.265Z,60.3
2018-08-17T07:24:58.656Z,60.4
2018-08-17T07:25:18.819Z,60
2018-08-17T07:25:38.959Z,60.2
2018-08-17T07:25:59.125Z,60
2018-08-17T07:26:19.310Z,60.5
2018-08-17T07:26:39.486Z,60.7
2018-08-17T07:26:59.669Z,60.2
2018-08-17T07:27:19.843Z,59.9
2018-08-17T07:27:40.042Z,60.3
2018-08-17T07:28:01.941Z,58.4
2018-08-17T07:28:22.047Z,58.5
2018-08-17T07:28:42.205Z,58.4
2018-08-17T07:29:02.394Z,58.4
2018-08-17T07:29:23.118Z,58.5
2018-08-17T07:29:44.238Z,58.7
2018-08-17T07:30:04.413Z,58.3
2018-08-17T07:30:25.153Z,58.8
2018-08-17T07:30:45.327Z,58.8
2018-08-17T07:31:05.475Z,58.4
2018-08-17T07:31:29.380Z,58.4
2018-08-17T07:31:49.545Z,58
2018-08-17T07:32:10.460Z,58.1
2018-08-17T07:32:30.621Z,58
2018-08-17T07:32:53.067Z,58.4
2018-08-17T07:33:14.064Z,58.3
2018-08-17T07:33:34.239Z,58.7
2018-08-17T07:33:54.379Z,58.5
2018-08-17T07:34:14.541Z,57.6
2018-08-17T07:34:34.698Z,57.5
2018-08-17T07:34:54.850Z,57.4
2018-08-17T07:35:15.810Z,57.4
2018-08-17T07:35:36.038Z,57.5
2018-08-17T07:35:56.315Z,57.4
2018-08-17T07:36:17.261Z,57.6
2018-08-17T07:36:37.447Z,56.8
2018-08-17T07:36:57.616Z,57.8
2018-08-17T07:37:17.783Z,57.6
2018-08-17T07:37:37.951Z,58.1
2018-08-17T07:37:58.074Z,57.6
2018-08-17T07:38:18.230Z,58
2018-08-17T07:38:38.411Z,58
2018-08-17T07:38:58.565Z,57.5
2018-08-17T07:39:18.715Z,57.3
2018-08-17T07:39:38.894Z,57.1
2018-08-17T07:39:59.059Z,56.2
2018-08-17T07:40:19.742Z,57.1
2018-08-17T07:40:39.902Z,57.6
2018-08-17T07:41:00.890Z,57.5
2018-08-17T07:41:21.869Z,57.2
2018-08-17T07:41:42.118Z,56.9
2018-08-17T07:42:03.072Z,56.9
2018-08-17T07:42:23.287Z,57
2018-08-17T07:42:43.501Z,57
2018-08-17T07:43:03.646Z,57.6
2018-08-17T07:43:23.809Z,57.1
2018-08-17T07:43:43.965Z,57
2018-08-17T07:44:04.199Z,57
2018-08-17T07:44:24.437Z,56.8
2018-08-17T07:44:44.622Z,56.1
2018-08-17T07:45:04.778Z,55.8
2018-08-17T07:45:24.940Z,56.4
2018-08-17T07:45:45.936Z,56.2
2018-08-17T07:46:06.132Z,56.3
2018-08-17T07:46:26.290Z,55.9
2018-08-17T07:46:46.443Z,56.3
2018-08-17T07:47:06.591Z,56.4
2018-08-17T07:47:26.763Z,56.9
2018-08-17T07:47:46.947Z,56.8
2018-08-17T07:48:07.330Z,56.8
2018-08-17T07:48:29.290Z,56.9
2018-08-17T07:48:49.995Z,57.2
2018-08-17T07:49:10.665Z,56.8
2018-08-17T07:49:30.845Z,56.3
2018-08-17T07:49:51.001Z,55.7
2018-08-17T07:50:12.607Z,55.9
2018-08-17T07:50:32.771Z,55.9
2018-08-17T07:50:52.943Z,55.8
2018-08-17T07:51:13.148Z,55
2018-08-17T07:51:33.312Z,55.9
2018-08-17T07:51:54.286Z,55.7
2018-08-17T07:52:15.186Z,55
2018-08-17T07:52:36.200Z,55.8
2018-08-17T07:52:56.383Z,55.9
2018-08-17T07:53:16.531Z,54.5
2018-08-17T07:53:37.258Z,54.5
2018-08-17T07:53:59.259Z,54.6
2018-08-17T07:54:19.414Z,54.5
2018-08-17T07:54:39.575Z,54.8
2018-08-17T07:54:59.737Z,54.6
2018-08-17T07:55:20.041Z,53.7
2018-08-17T07:55:40.187Z,54.2
2018-08-17T07:56:00.344Z,54.5
2018-08-17T07:56:20.525Z,54.3
2018-08-17T07:56:40.806Z,54.5
2018-08-17T07:57:01.807Z,54.2
2018-08-17T07:57:23.425Z,53.9
2018-08-17T07:57:43.629Z,53.5
2018-08-17T07:58:03.761Z,53.7
2018-08-17T07:58:23.913Z,53.7
2018-08-17T07:58:44.122Z,54.2
2018-08-17T07:59:04.348Z,53.8
2018-08-17T07:59:24.435Z,53.7
2018-08-17T07:59:45.263Z,53.7
2018-08-17T08:00:05.457Z,53.1
2018-08-17T08:00:26.358Z,53.3
2018-08-17T08:00:46.577Z,53.4
2018-08-17T08:01:07.363Z,53.4
2018-08-17T08:01:27.525Z,53.8
2018-08-17T08:01:47.712Z,53.5
2018-08-17T08:02:07.874Z,53.6
2018-08-17T08:02:28.824Z,53.8
2018-08-17T08:02:48.993Z,53.8
2018-08-17T08:03:10.018Z,52.7
2018-08-17T08:03:30.997Z,52.8
2018-08-17T08:03:51.209Z,53.2
2018-08-17T08:04:12.246Z,52.8
2018-08-17T08:04:32.533Z,53.6
2018-08-17T08:04:52.799Z,53.3
2018-08-17T08:05:12.969Z,53.2
2018-08-17T08:05:33.264Z,52.3
2018-08-17T08:05:54.479Z,53.1
2018-08-17T08:06:14.729Z,53.1
2018-08-17T08:06:35.010Z,52.6
2018-08-17T08:06:55.232Z,52.2
2018-08-17T08:07:16.619Z,52.2
2018-08-17T08:07:37.313Z,51.8
2018-08-17T08:07:58.404Z,51.9
2018-08-17T08:08:18.564Z,52.8
2018-08-17T08:08:38.764Z,52.8
2018-08-17T08:08:58.973Z,52.8
2018-08-17T08:09:19.157Z,52.8
2018-08-17T08:09:39.372Z,53.1
2018-08-17T08:10:00.440Z,53.2
2018-08-17T08:10:20.671Z,52.9
2018-08-17T08:10:40.825Z,52.9
2018-08-17T08:11:01.060Z,53.1
2018-08-17T08:11:22.132Z,52.9
2018-08-17T08:11:42.266Z,52.7
2018-08-17T08:12:02.394Z,52.6
2018-08-17T08:12:22.581Z,53
2018-08-17T08:12:42.955Z,52.9
2018-08-17T08:13:03.316Z,52.9
2018-08-17T08:13:23.521Z,53.1
2018-08-17T08:13:44.073Z,52.6
2018-08-17T08:14:04.870Z,52.8
2018-08-17T08:14:25.016Z,52.2
2018-08-17T08:14:46.201Z,52
2018-08-17T08:15:06.450Z,52.5
2018-08-17T08:15:27.121Z,51.9
2018-08-17T08:15:47.353Z,51.8
2018-08-17T08:16:07.562Z,51.7
2018-08-17T08:16:27.747Z,51.3
2018-08-17T08:16:47.959Z,51
2018-08-17T08:17:08.162Z,50.9
2018-08-17T08:17:28.423Z,51
2018-08-17T08:17:48.649Z,50.2
2018-08-17T08:18:08.850Z,50.2
2018-08-17T08:18:29.103Z,50.5
2018-08-17T08:18:49.353Z,51.3
2018-08-17T08:19:09.794Z,50.7
2018-08-17T08:19:30.197Z,51.4
2018-08-17T08:19:50.375Z,51.6
2018-08-17T08:20:10.573Z,50.8
2018-08-17T08:20:30.950Z,51.2
2018-08-17T08:20:51.220Z,51.5
2018-08-17T08:21:11.478Z,51.1
2018-08-17T08:21:31.855Z,50.4
2018-08-17T08:21:52.166Z,51.2
2018-08-17T08:22:12.390Z,50.8
2018-08-17T08:22:32.636Z,49.9
2018-08-17T08:22:52.857Z,49.8
2018-08-17T08:23:13.053Z,49.2
2018-08-17T08:23:33.383Z,48.8
2018-08-17T08:23:53.584Z,49
2018-08-17T08:24:13.845Z,49.4
2018-08-17T08:24:34.192Z,50.3
2018-08-17T08:24:54.400Z,49.9
2018-08-17T08:25:14.579Z,49.2
2018-08-17T08:25:34.786Z,49.4
2018-08-17T08:25:55.633Z,49.4
2018-08-17T08:26:15.796Z,49.7
2018-08-17T08:26:36.035Z,49.4
2018-08-17T08:26:56.296Z,49.8
2018-08-17T08:27:16.490Z,50.1
2018-08-17T08:27:36.767Z,50
2018-08-17T08:27:56.947Z,49.8
2018-08-17T08:28:17.218Z,49.5
2018-08-17T08:28:37.560Z,49.4
2018-08-17T08:28:58.075Z,49.4
2018-08-17T08:29:18.284Z,49.4
2018-08-17T08:29:38.491Z,49.7
2018-08-17T08:29:58.657Z,49.9
2018-08-17T08:30:18.822Z,49.8
2018-08-17T08:30:38.974Z,49.6
2018-08-17T08:30:59.094Z,48.9
2018-08-17T08:31:19.259Z,48.8
2018-08-17T08:31:39.478Z,48.7
2018-08-17T08:31:59.699Z,48.7
2018-08-17T08:32:19.887Z,48.8
2018-08-17T08:32:40.318Z,48.8
2018-08-17T08:33:00.587Z,48.2
2018-08-17T08:33:20.812Z,48.8
2018-08-17T08:33:41.317Z,48.7
2018-08-17T08:34:01.553Z,48.7
2018-08-17T08:34:21.734Z,48.4
2018-08-17T08:34:41.908Z,49
2018-08-17T08:35:02.091Z,49.4
2018-08-17T08:35:22.286Z,49.6
2018-08-17T08:35:42.452Z,49.1
2018-08-17T08:36:02.621Z,48.9
2018-08-17T08:36:22.883Z,48.7
2018-08-17T08:36:43.098Z,48.6
2018-08-17T08:37:03.324Z,48.6
2018-08-17T08:37:23.501Z,48.9
2018-08-17T08:37:43.698Z,48.4
2018-08-17T08:38:03.919Z,47.8
2018-08-17T08:38:24.090Z,47.6
2018-08-17T08:38:44.265Z,47.3
2018-08-17T08:39:04.440Z,47.8
2018-08-17T08:39:24.672Z,47.8
2018-08-17T08:39:44.906Z,47.3
2018-08-17T08:40:06.215Z,46.1
2018-08-17T08:40:26.401Z,46.9
2018-08-17T08:40:46.633Z,47.4
2018-08-17T08:41:06.914Z,47.3
2018-08-17T08:41:27.118Z,47.7
2018-08-17T08:41:47.317Z,47.5
2018-08-17T08:42:07.532Z,47.7
2018-08-17T08:42:27.688Z,46.8
2018-08-17T08:42:47.880Z,46.5
2018-08-17T08:43:08.036Z,46.4
2018-08-17T08:43:28.286Z,46.2
2018-08-17T08:43:48.492Z,46.2
2018-08-17T08:44:08.698Z,46.4
2018-08-17T08:44:28.918Z,45.9
2018-08-17T08:44:49.144Z,46.5
2018-08-17T08:45:09.322Z,46.6
2018-08-17T08:45:29.599Z,46.6
2018-08-17T08:45:49.806Z,46.5
2018-08-17T08:46:10.038Z,47.6
2018-08-17T08:46:30.271Z,47.6
2018-08-17T08:46:50.497Z,47.9
2018-08-17T08:47:10.686Z,46.7
2018-08-17T08:47:31.148Z,46.7
2018-08-17T08:47:51.340Z,46.8
2018-08-17T08:48:11.639Z,47.3
2018-08-17T08:48:31.928Z,47.8
2018-08-17T08:48:52.248Z,47.9
2018-08-17T08:49:12.460Z,47.6
2018-08-17T08:49:32.771Z,47.4
2018-08-17T08:49:53.054Z,46.4
2018-08-17T08:50:13.298Z,46.3
2018-08-17T08:50:33.623Z,46.4
2018-08-17T08:50:53.959Z,46.2
2018-08-17T08:51:14.086Z,46.1
2018-08-17T08:51:35.066Z,45.6
2018-08-17T08:51:55.318Z,45.5
2018-08-17T08:52:15.514Z,45.2
2018-08-17T08:52:35.712Z,43.9
2018-08-17T08:52:55.932Z,44.4
2018-08-17T08:53:16.145Z,45.5
2018-08-17T08:53:36.383Z,45.4
2018-08-17T08:53:56.569Z,44.8
2018-08-17T08:54:16.714Z,44.7
2018-08-17T08:54:36.891Z,44.2
2018-08-17T08:54:57.086Z,44.2
2018-08-17T08:55:17.261Z,43.4
2018-08-17T08:55:37.441Z,43.5
2018-08-17T08:55:57.721Z,43
2018-08-17T08:56:17.899Z,43
2018-08-17T08:56:38.071Z,43.2
2018-08-17T08:56:58.244Z,42.9
2018-08-17T08:57:18.469Z,43
2018-08-17T08:57:38.620Z,43.5
2018-08-17T08:57:58.768Z,44.1
2018-08-17T08:58:19.010Z,44.1
2018-08-17T08:58:39.162Z,43.9
2018-08-17T08:58:59.364Z,44.1
2018-08-17T08:59:19.552Z,44
2018-08-17T08:59:39.781Z,44
2018-08-17T09:00:00.029Z,44.3
2018-08-17T09:00:21.246Z,44.6
2018-08-17T09:00:41.412Z,45
2018-08-17T09:01:01.925Z,44.8
2018-08-17T09:01:25.100Z,44.8
2018-08-17T09:01:45.339Z,44.5
2018-08-17T09:02:05.608Z,43.9
2018-08-17T09:02:25.798Z,44.1
2018-08-17T09:02:45.970Z,44
2018-08-17T09:03:06.155Z,43.5
2018-08-17T09:03:26.300Z,43.7
2018-08-17T09:03:46.477Z,42.8
2018-08-17T09:04:06.662Z,41.6
2018-08-17T09:04:26.848Z,41.7
2018-08-17T09:04:47.060Z,42
2018-08-17T09:05:07.270Z,42.8
2018-08-17T09:05:27.481Z,43
2018-08-17T09:05:47.672Z,42.8
2018-08-17T09:06:07.969Z,42.7
2018-08-17T09:06:28.143Z,43
2018-08-17T09:06:48.318Z,43
2018-08-17T09:07:08.490Z,43.2
2018-08-17T09:07:28.788Z,42.7
2018-08-17T09:07:48.983Z,42.6
2018-08-17T09:08:09.240Z,42.9
2018-08-17T09:08:29.396Z,43.8
2018-08-17T09:08:49.661Z,43.4
2018-08-17T09:09:09.885Z,43.1
2018-08-17T09:09:30.114Z,42.8
2018-08-17T09:09:50.332Z,43.3
2018-08-17T09:10:10.567Z,43.5
2018-08-17T09:10:30.781Z,43.7
2018-08-17T09:10:50.955Z,43.4
2018-08-17T09:11:11.132Z,43.3
2018-08-17T09:11:31.297Z,43.1
2018-08-17T09:11:51.561Z,42.7
2018-08-17T09:12:11.758Z,41.8
2018-08-17T09:12:31.904Z,41.5
2018-08-17T09:12:52.058Z,41.1
2018-08-17T09:13:12.228Z,40.9
2018-08-17T09:13:32.454Z,41
2018-08-17T09:13:52.688Z,41.2
2018-08-17T09:14:12.943Z,40.9
2018-08-17T09:14:33.099Z,41.4
2018-08-17T09:14:53.318Z,41.2
2018-08-17T09:15:13.525Z,41.3
2018-08-17T09:15:33.779Z,41.2
2018-08-17T09:15:53.932Z,41.4
2018-08-17T09:16:14.088Z,41.5
2018-08-17T09:16:34.266Z,41.9
2018-08-17T09:16:54.520Z,41.7
2018-08-17T09:17:14.676Z,42.6
2018-08-17T09:17:34.837Z,41.5
2018-08-17T09:17:56.013Z,41
2018-08-17T09:18:16.228Z,40.8
2018-08-17T09:18:36.515Z,41.2
2018-08-17T09:18:56.804Z,42
2018-08-17T09:19:17.038Z,41.8
2018-08-17T09:19:37.267Z,41.4
2018-08-17T09:19:57.486Z,40.9
2018-08-17T09:20:17.769Z,41.4
2018-08-17T09:20:37.896Z,41.4
2018-08-17T09:20:58.105Z,40.6
2018-08-17T09:21:18.290Z,40.3
2018-08-17T09:21:38.617Z,40
2018-08-17T09:21:58.807Z,40.3
2018-08-17T09:22:19.009Z,40.7
2018-08-17T09:22:39.190Z,40.2
2018-08-17T09:22:59.392Z,40.4
2018-08-17T09:23:19.669Z,40.3
2018-08-17T09:23:39.894Z,40.2
2018-08-17T09:24:00.115Z,40.5
2018-08-17T09:24:20.334Z,40.8
2018-08-17T09:24:40.642Z,41
2018-08-17T09:25:00.819Z,40.7
2018-08-17T09:25:21.144Z,40.7
2018-08-17T09:25:41.425Z,41
2018-08-17T09:26:03.237Z,41.7
2018-08-17T09:26:23.455Z,41.7
2018-08-17T09:26:43.616Z,40.4
2018-08-17T09:27:03.859Z,39.4
2018-08-17T09:27:24.045Z,39.8
2018-08-17T09:27:44.276Z,40.2
2018-08-17T09:28:04.547Z,40.2
2018-08-17T09:28:24.745Z,40
2018-08-17T09:28:44.925Z,40.4
2018-08-17T09:29:05.289Z,40.2
2018-08-17T09:29:25.400Z,40.7
2018-08-17T09:29:45.582Z,40.4
2018-08-17T09:30:05.855Z,40.5
2018-08-17T09:30:26.121Z,40.3
2018-08-17T09:30:46.289Z,40.6
2018-08-17T09:31:06.540Z,40.6
2018-08-17T09:31:26.696Z,40.2
2018-08-17T09:31:46.865Z,40.1
2018-08-17T09:32:07.087Z,40.3
2018-08-17T09:32:27.317Z,40.4
2018-08-17T09:32:47.472Z,39.5
2018-08-17T09:33:07.679Z,39.5
2018-08-17T09:33:27.891Z,39.9
2018-08-17T09:33:48.124Z,39.6
2018-08-17T09:34:08.362Z,40.6
2018-08-17T09:34:28.647Z,40.9
2018-08-17T09:34:48.844Z,40.5
2018-08-17T09:35:09.035Z,40
2018-08-17T09:35:29.187Z,39.3
2018-08-17T09:35:49.388Z,39.4
2018-08-17T09:36:10.278Z,39.3
2018-08-17T09:36:30.387Z,39.3
2018-08-17T09:36:50.612Z,39.3
2018-08-17T09:37:10.859Z,39.9
2018-08-17T09:37:31.062Z,39.9
2018-08-17T09:37:51.256Z,39.6
2018-08-17T09:38:11.479Z,39.4
2018-08-17T09:38:31.662Z,39.3
2018-08-17T09:38:52.703Z,38.9
2018-08-17T09:39:12.944Z,39
2018-08-17T09:39:33.127Z,38.9
2018-08-17T09:39:53.402Z,39.1
2018-08-17T09:40:13.591Z,39
2018-08-17T09:40:33.839Z,39.2
2018-08-17T09:40:53.993Z,39.4
2018-08-17T09:41:14.150Z,38.8
2018-08-17T09:41:34.426Z,38.4
2018-08-17T09:41:54.614Z,38.8
2018-08-17T09:42:14.815Z,38.7
2018-08-17T09:42:35.070Z,38.9
2018-08-17T09:42:55.249Z,38.1
2018-08-17T09:43:15.493Z,38
2018-08-17T09:43:35.687Z,37.7
2018-08-17T09:43:55.949Z,37.4
2018-08-17T09:44:16.126Z,37.5
2018-08-17T09:44:36.339Z,37.5
2018-08-17T09:44:56.521Z,37.7
2018-08-17T09:45:16.729Z,37.8
2018-08-17T09:45:36.845Z,38
2018-08-17T09:45:57.010Z,37.4
2018-08-17T09:46:17.278Z,37.4
2018-08-17T09:46:37.499Z,37.7
2018-08-17T09:46:57.695Z,38.1
2018-08-17T09:47:17.978Z,39.3
2018-08-17T09:47:38.225Z,37.9
2018-08-17T09:47:58.447Z,37.7
2018-08-17T09:48:18.591Z,37.5
2018-08-17T09:48:38.798Z,37.4
2018-08-17T09:48:58.995Z,37.3
2018-08-17T09:49:19.189Z,37.3
2018-08-17T09:49:39.352Z,38.5
2018-08-17T09:49:59.516Z,38.7
2018-08-17T09:50:19.743Z,38.3
2018-08-17T09:50:39.916Z,38.3
2018-08-17T09:51:00.117Z,38.4
2018-08-17T09:51:20.387Z,38
2018-08-17T09:51:40.537Z,37.9
2018-08-17T09:52:00.742Z,37.9
2018-08-17T09:52:20.928Z,37.8
2018-08-17T09:52:41.131Z,38.2
2018-08-17T09:53:01.331Z,38.1
2018-08-17T09:53:21.514Z,38.7
2018-08-17T09:53:41.704Z,38.9
2018-08-17T09:54:01.912Z,38.7
2018-08-17T09:54:22.082Z,38.6
2018-08-17T09:54:42.317Z,38.5
2018-08-17T09:55:02.503Z,39.5
2018-08-17T09:55:22.712Z,39.4
2018-08-17T09:55:42.975Z,39.3
2018-08-17T09:56:03.202Z,39.6
2018-08-17T09:56:23.480Z,39.1
2018-08-17T09:56:43.682Z,39.1
2018-08-17T09:57:03.846Z,39
2018-08-17T09:57:24.067Z,39.1
2018-08-17T09:57:45.154Z,39.4
2018-08-17T09:58:05.292Z,38.4
2018-08-17T09:58:25.463Z,38.2
2018-08-17T09:58:45.658Z,37.8
2018-08-17T09:59:05.828Z,37.9
2018-08-17T09:59:26.030Z,37.3
2018-08-17T09:59:46.188Z,36.5
2018-08-17T10:00:06.418Z,36.8
2018-08-17T10:00:26.619Z,37
2018-08-17T10:00:46.797Z,37.1
2018-08-17T10:01:06.967Z,37
2018-08-17T10:01:27.255Z,37.4
2018-08-17T10:01:47.421Z,37.4
2018-08-17T10:02:07.590Z,37.4
2018-08-17T10:02:27.747Z,37.9
2018-08-17T10:02:48.049Z,37.8
2018-08-17T10:03:08.293Z,37.8
2018-08-17T10:03:28.524Z,38
2018-08-17T10:03:48.917Z,38.4
2018-08-17T10:04:09.168Z,37.7
2018-08-17T10:04:29.352Z,37.3
2018-08-17T10:04:49.599Z,37.8
2018-08-17T10:05:09.763Z,37.4
2018-08-17T10:05:29.954Z,37.4
2018-08-17T10:05:50.208Z,37.4
2018-08-17T10:06:10.352Z,37.5
2018-08-17T10:06:30.541Z,37.7
2018-08-17T10:06:50.732Z,37.2
2018-08-17T10:07:10.951Z,36.9
2018-08-17T10:07:31.212Z,37
2018-08-17T10:07:51.444Z,37.4
2018-08-17T10:08:11.608Z,38.1
2018-08-17T10:08:31.849Z,38.1
2018-08-17T10:08:52.063Z,37.9
2018-08-17T10:09:12.314Z,37.6
2018-08-17T10:09:32.536Z,37.4
2018-08-17T10:09:52.712Z,37.4
2018-08-17T10:10:12.868Z,37.5
2018-08-17T10:10:33.103Z,37.3
2018-08-17T10:10:54.111Z,37.1
2018-08-17T10:11:14.308Z,37
2018-08-17T10:11:34.489Z,36.5
2018-08-17T10:11:54.660Z,36.1
2018-08-17T10:12:14.806Z,36.1
2018-08-17T10:12:34.960Z,35.5
2018-08-17T10:12:55.095Z,35.7
2018-08-17T10:13:15.246Z,35.8
2018-08-17T10:13:35.387Z,35.9
2018-08-17T10:13:55.568Z,35.2
2018-08-17T10:14:15.753Z,35.7
2018-08-17T10:14:35.939Z,35.2
2018-08-17T10:14:56.071Z,34.6
2018-08-17T10:15:16.256Z,35.4
2018-08-17T10:15:36.444Z,35.9
2018-08-17T10:15:56.974Z,35.8
2018-08-17T10:16:17.154Z,35.2
2018-08-17T10:16:37.480Z,35.2
2018-08-17T10:16:58.265Z,34.6
2018-08-17T10:17:18.499Z,34.9
2018-08-17T10:17:38.770Z,33.4
2018-08-17T10:17:58.992Z,33.4
2018-08-17T10:18:19.133Z,33.4
2018-08-17T10:18:39.311Z,33.2
2018-08-17T10:18:59.446Z,34.3
2018-08-17T10:19:19.616Z,34.1
2018-08-17T10:19:39.818Z,34.6
2018-08-17T10:19:59.972Z,34.3
2018-08-17T10:20:20.225Z,34.3
2018-08-17T10:20:40.497Z,34.2
2018-08-17T10:21:01.039Z,34.4
2018-08-17T10:21:21.384Z,33.6
2018-08-17T10:21:41.824Z,33.7
2018-08-17T10:22:01.992Z,33.6
2018-08-17T10:22:21.936Z,34.4
2018-08-17T10:22:42.120Z,34.4
2018-08-17T10:23:02.305Z,34.6
2018-08-17T10:23:22.540Z,34.4
2018-08-17T10:23:42.719Z,34.2